createdAt,value
2022-10-04T00:00:51.175Z,10.29
2022-10-04T00:06:03.878Z,10.29
2022-10-04T00:11:20.861Z,10.29
2022-10-04T00:16:31.638Z,10.25
2022-10-04T00:22:26.997Z,10.23
2022-10-04T00:27:29.241Z,10.23
2022-10-04T00:32:48.315Z,10.25
2022-10-04T00:38:03.473Z,10.27
2022-10-04T00:43:08.750Z,10.27
2022-10-04T00:48:34.878Z,10.25
2022-10-04T00:53:51.389Z,10.24
2022-10-04T00:59:18.824Z,10.22
2022-10-04T01:04:34.871Z,10.19
2022-10-04T01:09:38.363Z,10.18
2022-10-04T01:14:51.249Z,10.17
2022-10-04T01:19:59.999Z,10.16
2022-10-04T01:24:58.657Z,10.13
2022-10-04T01:29:59.072Z,10.10
2022-10-04T01:34:59.138Z,10.07
2022-10-04T01:39:58.901Z,10.07
2022-10-04T01:45:05.204Z,10.06
2022-10-04T01:50:13.573Z,10.06
2022-10-04T01:55:21.720Z,10.06
2022-10-04T02:00:24.813Z,10.04
2022-10-04T02:05:35.207Z,9.98
2022-10-04T02:10:43.419Z,9.95
2022-10-04T02:15:43.555Z,9.91
2022-10-04T02:20:45.652Z,9.89
2022-10-04T02:25:44.798Z,9.89
2022-10-04T02:31:09.302Z,9.88
2022-10-04T02:36:10.824Z,9.89
2022-10-04T02:41:22.082Z,9.86
2022-10-04T02:46:29.772Z,9.83
2022-10-04T02:51:36.756Z,9.81
2022-10-04T02:56:38.090Z,9.79
2022-10-04T03:01:54.008Z,9.80
2022-10-04T03:06:57.279Z,9.81
2022-10-04T03:11:57.557Z,9.83
2022-10-04T03:17:01.921Z,9.85
2022-10-04T03:22:06.150Z,9.87
2022-10-04T03:27:10.394Z,9.88
2022-10-04T03:32:12.992Z,9.90
2022-10-04T03:37:21.620Z,9.94
2022-10-04T03:42:24.406Z,9.95
2022-10-04T03:47:29.153Z,9.97
2022-10-04T03:52:32.734Z,9.98
2022-10-04T03:57:33.741Z,10.02
2022-10-04T04:02:45.862Z,10.04
2022-10-04T04:07:54.582Z,10.07
2022-10-04T04:13:02.862Z,10.12
2022-10-04T04:18:07.951Z,10.20
2022-10-04T04:23:27.989Z,10.26
2022-10-04T04:28:39.919Z,10.31
2022-10-04T04:33:47.361Z,10.34
2022-10-04T04:39:00.115Z,10.34
2022-10-04T04:43:59.087Z,10.36
2022-10-04T04:49:04.191Z,10.36
2022-10-04T04:54:07.736Z,10.39
2022-10-04T04:59:11.375Z,10.39
2022-10-04T05:04:23.431Z,10.42
2022-10-04T05:09:38.840Z,10.43
2022-10-04T05:14:42.766Z,10.45
2022-10-04T05:19:44.152Z,10.47
2022-10-04T05:24:47.500Z,10.48
2022-10-04T05:30:02.985Z,10.50
2022-10-04T05:35:03.004Z,10.55
2022-10-04T05:40:25.064Z,10.59
2022-10-04T05:45:28.378Z,10.66
2022-10-04T05:50:40.715Z,10.70
2022-10-04T05:55:58.454Z,10.73
2022-10-04T06:01:24.730Z,10.76
2022-10-04T06:06:33.912Z,10.79
2022-10-04T06:11:55.921Z,10.85
2022-10-04T06:17:20.103Z,10.99
2022-10-04T06:22:27.705Z,11.13
2022-10-04T06:27:41.314Z,11.25
2022-10-04T06:33:18.924Z,11.40
2022-10-04T06:38:51.709Z,11.48
2022-10-04T06:44:32.968Z,11.51
2022-10-04T06:49:43.013Z,11.51
2022-10-04T06:55:05.815Z,11.52
2022-10-04T07:00:18.621Z,11.53
2022-10-04T07:05:30.804Z,11.55
2022-10-04T07:10:42.421Z,11.58
2022-10-04T07:15:53.788Z,11.59
2022-10-04T07:21:03.554Z,11.66
2022-10-04T07:26:18.484Z,11.76
2022-10-04T07:31:26.677Z,11.89
2022-10-04T07:36:30.954Z,12.07
2022-10-04T07:41:39.141Z,12.26
2022-10-04T07:46:55.253Z,12.45
2022-10-04T07:52:19.968Z,12.62
2022-10-04T07:57:32.091Z,12.84
2022-10-04T08:02:56.659Z,13.04
2022-10-04T08:08:24.258Z,13.08
2022-10-04T08:13:36.445Z,13.10
2022-10-04T08:19:04.053Z,13.11
2022-10-04T08:24:19.842Z,13.16
2022-10-04T08:29:53.224Z,13.15
2022-10-04T08:35:16.635Z,13.25
2022-10-04T08:41:15.121Z,13.40
2022-10-04T08:46:59.747Z,13.46
2022-10-04T08:52:42.393Z,13.46
2022-10-04T08:58:12.684Z,13.45
2022-10-04T09:04:01.995Z,13.38
2022-10-04T09:09:55.311Z,13.28
2022-10-04T09:15:26.220Z,13.25
2022-10-04T09:20:44.998Z,13.31
2022-10-04T09:26:09.505Z,13.33
2022-10-04T09:31:31.276Z,13.31
2022-10-04T09:37:31.139Z,13.30
2022-10-04T09:43:05.269Z,13.32
2022-10-04T09:48:26.617Z,13.31
2022-10-04T09:53:45.346Z,13.29
2022-10-04T09:59:18.634Z,13.29
2022-10-04T10:04:48.731Z,13.38
2022-10-04T10:10:19.422Z,13.50
2022-10-04T10:15:32.783Z,13.61
2022-10-04T10:21:06.875Z,13.66
2022-10-04T10:26:34.707Z,13.97
2022-10-04T10:32:13.987Z,14.35
2022-10-04T10:37:19.381Z,14.45
2022-10-04T10:43:04.306Z,14.64
2022-10-04T10:48:22.989Z,14.76
2022-10-04T10:54:05.450Z,14.98
2022-10-04T11:00:00.691Z,15.20
2022-10-04T11:05:37.044Z,15.51
2022-10-04T11:11:11.691Z,15.73
2022-10-04T11:17:13.665Z,15.70
2022-10-04T11:23:13.202Z,15.79
2022-10-04T11:28:24.500Z,15.51
2022-10-04T11:34:06.137Z,15.29
2022-10-04T11:39:33.882Z,15.09
2022-10-04T11:45:05.629Z,14.95
2022-10-04T11:50:51.416Z,14.94
2022-10-04T11:56:21.307Z,15.25
2022-10-04T12:02:20.518Z,15.50
2022-10-04T12:07:42.768Z,15.52
2022-10-04T12:13:18.342Z,15.49
2022-10-04T12:19:21.146Z,15.45
2022-10-04T12:24:48.856Z,15.28
2022-10-04T12:30:17.458Z,15.11
2022-10-04T12:35:46.013Z,15.00
2022-10-04T12:40:55.363Z,15.03
2022-10-04T12:46:21.440Z,15.28
2022-10-04T12:51:41.425Z,15.57
2022-10-04T12:56:55.432Z,15.64
2022-10-04T13:02:16.155Z,15.54
2022-10-04T13:07:38.296Z,15.40
2022-10-04T13:13:13.555Z,15.30
2022-10-04T13:18:25.415Z,15.32
2022-10-04T13:23:47.586Z,15.25
2022-10-04T13:29:02.275Z,15.39
2022-10-04T13:34:16.741Z,15.50
2022-10-04T13:39:49.221Z,15.41
2022-10-04T13:45:25.139Z,15.29
2022-10-04T13:50:45.311Z,15.31
2022-10-04T13:56:13.047Z,15.69
2022-10-04T14:02:10.524Z,15.88
2022-10-04T14:07:39.061Z,16.01
2022-10-04T14:13:43.166Z,16.12
2022-10-04T14:19:23.972Z,16.07
2022-10-04T14:25:00.465Z,15.91
2022-10-04T14:30:17.596Z,15.69
2022-10-04T14:35:25.865Z,15.51
2022-10-04T14:40:54.922Z,15.38
2022-10-04T14:46:18.453Z,15.26
2022-10-04T14:52:04.754Z,15.21
2022-10-04T14:57:13.827Z,15.17
2022-10-04T15:03:05.800Z,15.13
2022-10-04T15:08:48.581Z,15.07
2022-10-04T15:13:59.474Z,14.93
2022-10-04T15:19:09.486Z,14.73
2022-10-04T15:24:49.168Z,14.56
2022-10-04T15:30:00.104Z,14.39
2022-10-04T15:35:22.612Z,14.28
2022-10-04T15:40:43.343Z,14.20
2022-10-04T15:46:32.650Z,14.12
2022-10-04T15:52:03.527Z,14.00
2022-10-04T15:57:19.610Z,13.88
2022-10-04T16:03:00.042Z,13.78
2022-10-04T16:08:27.946Z,13.65
2022-10-04T16:13:55.038Z,13.54
2022-10-04T16:19:09.806Z,13.43
2022-10-04T16:24:45.903Z,13.33
2022-10-04T16:30:25.650Z,13.25
2022-10-04T16:35:35.045Z,13.18
2022-10-04T16:40:57.167Z,13.12
2022-10-04T16:46:20.318Z,13.07
2022-10-04T16:51:54.098Z,12.99
2022-10-04T16:57:23.689Z,12.92
2022-10-04T17:02:48.402Z,12.85
2022-10-04T17:08:11.627Z,12.77
2022-10-04T17:13:28.586Z,12.69
2022-10-04T17:18:49.343Z,12.61
2022-10-04T17:24:23.232Z,12.51
2022-10-04T17:29:46.650Z,12.41
2022-10-04T17:35:00.606Z,12.31
2022-10-04T17:40:21.860Z,12.21
2022-10-04T17:45:48.228Z,12.11
2022-10-04T17:51:17.729Z,12.00
2022-10-04T17:56:30.042Z,11.89
2022-10-04T18:01:38.480Z,11.78
2022-10-04T18:06:49.653Z,11.67
2022-10-04T18:11:54.099Z,11.58
2022-10-04T18:16:58.427Z,11.50
2022-10-04T18:22:13.396Z,11.44
2022-10-04T18:27:30.537Z,11.39
2022-10-04T18:32:40.576Z,11.35
2022-10-04T18:37:46.704Z,11.31
2022-10-04T18:42:58.383Z,11.27
2022-10-04T18:48:20.230Z,11.23
2022-10-04T18:54:29.272Z,11.17
2022-10-04T19:00:15.619Z,11.10
2022-10-04T19:05:38.050Z,11.05
2022-10-04T19:11:00.831Z,11.01
2022-10-04T19:16:36.711Z,10.95
2022-10-04T19:21:49.348Z,10.89
2022-10-04T19:26:57.582Z,10.85
2022-10-04T19:32:03.177Z,10.80
2022-10-04T19:37:12.544Z,10.74
2022-10-04T19:42:17.355Z,10.70
2022-10-04T19:47:40.067Z,10.64
2022-10-04T19:52:48.280Z,10.58
2022-10-04T19:57:53.891Z,10.53
2022-10-04T20:02:53.827Z,10.50
2022-10-04T20:08:05.186Z,10.44
2022-10-04T20:13:24.348Z,10.37
2022-10-04T20:19:19.689Z,10.30
2022-10-04T20:25:00.841Z,10.23
2022-10-04T20:30:14.438Z,10.18
2022-10-04T20:36:09.473Z,10.15
2022-10-04T20:42:22.853Z,10.11
2022-10-04T20:47:35.154Z,10.11
2022-10-04T20:52:41.310Z,10.09
2022-10-04T20:57:43.991Z,10.04
2022-10-04T21:02:44.241Z,9.99
2022-10-04T21:07:42.980Z,9.94
2022-10-04T21:12:44.533Z,9.90
2022-10-04T21:17:44.618Z,9.87
2022-10-04T21:22:44.778Z,9.82
2022-10-04T21:27:45.687Z,9.77
2022-10-04T21:32:46.286Z,9.72
2022-10-04T21:37:47.131Z,9.69
2022-10-04T21:42:46.528Z,9.64
2022-10-04T21:47:48.869Z,9.59
2022-10-04T21:52:48.408Z,9.54
2022-10-04T21:57:47.288Z,9.49
2022-10-04T22:02:47.002Z,9.46
2022-10-04T22:07:46.406Z,9.43
2022-10-04T22:12:46.370Z,9.41
2022-10-04T22:17:45.737Z,9.38
2022-10-04T22:22:44.758Z,9.36
2022-10-04T22:27:44.612Z,9.34
2022-10-04T22:32:45.723Z,9.31
2022-10-04T22:37:45.409Z,9.30
2022-10-04T22:42:45.750Z,9.29
2022-10-04T22:47:45.060Z,9.29
2022-10-04T22:52:44.863Z,9.28
2022-10-04T22:57:44.034Z,9.28
2022-10-04T23:02:43.384Z,9.28
2022-10-04T23:07:43.514Z,9.29
2022-10-04T23:12:45.833Z,9.30
2022-10-04T23:17:45.521Z,9.32
2022-10-04T23:22:46.518Z,9.34
2022-10-04T23:27:46.410Z,9.36
2022-10-04T23:32:58.903Z,9.38
2022-10-04T23:37:58.439Z,9.41
2022-10-04T23:43:01.885Z,9.44
2022-10-04T23:48:03.946Z,9.46
2022-10-04T23:53:07.168Z,9.50
2022-10-04T23:58:14.609Z,9.53
